sensor_id;sensor_type;location;lat;lon;timestamp;temperature;humidity
5779;DHT22;2916;49.798;10.022;2022-08-19T00:01:20;21.60;1.00
5779;DHT22;2916;49.798;10.022;2022-08-19T00:03:48;21.50;1.00
5779;DHT22;2916;49.798;10.022;2022-08-19T00:06:15;21.50;2.40
5779;DHT22;2916;49.798;10.022;2022-08-19T00:08:43;21.50;1.00
5779;DHT22;2916;49.798;10.022;2022-08-19T00:11:11;21.50;1.00
5779;DHT22;2916;49.798;10.022;2022-08-19T00:13:40;21.50;4.90
5779;DHT22;2916;49.798;10.022;2022-08-19T00:16:07;21.50;6.40
5779;DHT22;2916;49.798;10.022;2022-08-19T00:18:34;21.40;6.00
5779;DHT22;2916;49.798;10.022;2022-08-19T00:21:02;21.40;8.80
5779;DHT22;2916;49.798;10.022;2022-08-19T00:23:34;21.40;10.40
5779;DHT22;2916;49.798;10.022;2022-08-19T00:26:02;21.30;10.70
5779;DHT22;2916;49.798;10.022;2022-08-19T00:28:30;21.30;12.10
5779;DHT22;2916;49.798;10.022;2022-08-19T00:30:58;21.30;13.20
5779;DHT22;2916;49.798;10.022;2022-08-19T00:33:28;21.30;11.90
5779;DHT22;2916;49.798;10.022;2022-08-19T00:35:59;21.20;13.40
5779;DHT22;2916;49.798;10.022;2022-08-19T00:38:27;21.20;16.20
5779;DHT22;2916;49.798;10.022;2022-08-19T00:40:55;21.20;16.70
5779;DHT22;2916;49.798;10.022;2022-08-19T00:43:25;21.10;18.80
5779;DHT22;2916;49.798;10.022;2022-08-19T00:45:53;21.10;19.80
5779;DHT22;2916;49.798;10.022;2022-08-19T00:48:22;21.10;21.10
5779;DHT22;2916;49.798;10.022;2022-08-19T00:50:51;21.00;21.90
5779;DHT22;2916;49.798;10.022;2022-08-19T00:53:24;20.90;21.60
5779;DHT22;2916;49.798;10.022;2022-08-19T00:55:56;20.90;26.40
5779;DHT22;2916;49.798;10.022;2022-08-19T00:58:28;20.90;29.50
5779;DHT22;2916;49.798;10.022;2022-08-19T01:00:58;20.80;30.50
5779;DHT22;2916;49.798;10.022;2022-08-19T01:03:27;20.80;33.40
5779;DHT22;2916;49.798;10.022;2022-08-19T01:05:55;20.80;32.00
5779;DHT22;2916;49.798;10.022;2022-08-19T01:08:23;20.80;38.00
5779;DHT22;2916;49.798;10.022;2022-08-19T01:10:54;20.70;35.70
5779;DHT22;2916;49.798;10.022;2022-08-19T01:13:26;20.70;37.40
5779;DHT22;2916;49.798;10.022;2022-08-19T01:15:58;20.70;38.50
5779;DHT22;2916;49.798;10.022;2022-08-19T01:18:32;20.70;36.80
5779;DHT22;2916;49.798;10.022;2022-08-19T01:21:09;20.60;40.70
5779;DHT22;2916;49.798;10.022;2022-08-19T01:23:45;20.50;43.90
5779;DHT22;2916;49.798;10.022;2022-08-19T01:26:17;20.50;44.80
5779;DHT22;2916;49.798;10.022;2022-08-19T01:28:48;20.40;46.40
5779;DHT22;2916;49.798;10.022;2022-08-19T01:31:20;20.40;42.60
5779;DHT22;2916;49.798;10.022;2022-08-19T01:33:52;20.40;46.60
5779;DHT22;2916;49.798;10.022;2022-08-19T01:36:24;20.40;47.10
5779;DHT22;2916;49.798;10.022;2022-08-19T01:38:56;20.40;46.80
5779;DHT22;2916;49.798;10.022;2022-08-19T01:41:27;20.30;47.80
5779;DHT22;2916;49.798;10.022;2022-08-19T01:43:54;20.30;48.30
5779;DHT22;2916;49.798;10.022;2022-08-19T01:46:22;20.30;49.00
5779;DHT22;2916;49.798;10.022;2022-08-19T01:48:49;20.30;56.90
5779;DHT22;2916;49.798;10.022;2022-08-19T01:51:16;20.30;51.80
5779;DHT22;2916;49.798;10.022;2022-08-19T01:53:46;20.30;49.80
5779;DHT22;2916;49.798;10.022;2022-08-19T01:56:15;20.30;50.70
5779;DHT22;2916;49.798;10.022;2022-08-19T01:58:46;20.30;51.60
5779;DHT22;2916;49.798;10.022;2022-08-19T02:01:18;20.30;52.70
5779;DHT22;2916;49.798;10.022;2022-08-19T02:03:46;20.30;56.00
5779;DHT22;2916;49.798;10.022;2022-08-19T02:06:13;20.30;58.70
5779;DHT22;2916;49.798;10.022;2022-08-19T02:08:42;20.30;58.80
5779;DHT22;2916;49.798;10.022;2022-08-19T02:11:20;20.30;56.80
5779;DHT22;2916;49.798;10.022;2022-08-19T02:13:49;20.30;53.50
5779;DHT22;2916;49.798;10.022;2022-08-19T02:16:17;20.30;55.00
5779;DHT22;2916;49.798;10.022;2022-08-19T02:18:45;20.30;53.00
5779;DHT22;2916;49.798;10.022;2022-08-19T02:21:14;20.30;56.60
5779;DHT22;2916;49.798;10.022;2022-08-19T02:23:42;20.20;57.40
5779;DHT22;2916;49.798;10.022;2022-08-19T02:26:12;20.20;58.40
5779;DHT22;2916;49.798;10.022;2022-08-19T02:28:41;20.20;55.50
5779;DHT22;2916;49.798;10.022;2022-08-19T02:31:09;20.20;59.50
5779;DHT22;2916;49.798;10.022;2022-08-19T02:33:38;20.10;58.40
5779;DHT22;2916;49.798;10.022;2022-08-19T02:36:07;20.10;63.10
5779;DHT22;2916;49.798;10.022;2022-08-19T02:38:36;20.10;60.10
5779;DHT22;2916;49.798;10.022;2022-08-19T02:41:05;20.10;67.90
5779;DHT22;2916;49.798;10.022;2022-08-19T02:43:38;20.00;64.50
5779;DHT22;2916;49.798;10.022;2022-08-19T02:46:13;20.00;66.70
5779;DHT22;2916;49.798;10.022;2022-08-19T02:48:46;20.00;61.20
5779;DHT22;2916;49.798;10.022;2022-08-19T02:51:18;20.00;61.30
5779;DHT22;2916;49.798;10.022;2022-08-19T02:53:47;19.90;60.50
5779;DHT22;2916;49.798;10.022;2022-08-19T02:56:15;19.90;60.90
5779;DHT22;2916;49.798;10.022;2022-08-19T02:58:42;19.80;73.30
5779;DHT22;2916;49.798;10.022;2022-08-19T03:01:18;19.90;72.60
5779;DHT22;2916;49.798;10.022;2022-08-19T03:03:46;19.80;75.50
5779;DHT22;2916;49.798;10.022;2022-08-19T03:06:15;19.80;77.60
5779;DHT22;2916;49.798;10.022;2022-08-19T03:08:45;19.80;79.30
5779;DHT22;2916;49.798;10.022;2022-08-19T03:11:14;19.90;81.00
5779;DHT22;2916;49.798;10.022;2022-08-19T03:13:43;19.90;91.30
5779;DHT22;2916;49.798;10.022;2022-08-19T03:16:12;19.90;91.60
5779;DHT22;2916;49.798;10.022;2022-08-19T03:18:39;19.90;92.50
5779;DHT22;2916;49.798;10.022;2022-08-19T03:21:07;19.90;93.40
5779;DHT22;2916;49.798;10.022;2022-08-19T03:23:35;19.90;93.10
5779;DHT22;2916;49.798;10.022;2022-08-19T03:26:05;19.90;93.10
5779;DHT22;2916;49.798;10.022;2022-08-19T03:28:33;19.80;94.20
5779;DHT22;2916;49.798;10.022;2022-08-19T03:31:03;19.80;94.60
5779;DHT22;2916;49.798;10.022;2022-08-19T03:33:34;19.80;93.80
5779;DHT22;2916;49.798;10.022;2022-08-19T03:36:04;19.80;96.80
5779;DHT22;2916;49.798;10.022;2022-08-19T03:38:35;19.70;95.10
5779;DHT22;2916;49.798;10.022;2022-08-19T03:41:04;19.70;96.40
5779;DHT22;2916;49.798;10.022;2022-08-19T03:43:35;19.70;96.20
5779;DHT22;2916;49.798;10.022;2022-08-19T03:46:06;19.60;99.60
5779;DHT22;2916;49.798;10.022;2022-08-19T03:48:36;19.60;99.90
5779;DHT22;2916;49.798;10.022;2022-08-19T03:51:04;19.50;99.90
5779;DHT22;2916;49.798;10.022;2022-08-19T03:53:34;19.50;99.90
5779;DHT22;2916;49.798;10.022;2022-08-19T03:56:02;19.50;99.90
5779;DHT22;2916;49.798;10.022;2022-08-19T03:58:30;19.50;99.90
5779;DHT22;2916;49.798;10.022;2022-08-19T04:00:57;19.50;99.90
5779;DHT22;2916;49.798;10.022;2022-08-19T04:03:25;19.50;99.90
5779;DHT22;2916;49.798;10.022;2022-08-19T04:05:54;19.50;99.90
5779;DHT22;2916;49.798;10.022;2022-08-19T04:08:21;19.50;99.90
5779;DHT22;2916;49.798;10.022;2022-08-19T04:10:48;19.50;99.90
5779;DHT22;2916;49.798;10.022;2022-08-19T04:13:17;19.60;99.90
5779;DHT22;2916;49.798;10.022;2022-08-19T04:15:45;19.60;99.90
5779;DHT22;2916;49.798;10.022;2022-08-19T04:18:13;19.60;99.90
5779;DHT22;2916;49.798;10.022;2022-08-19T04:20:45;19.70;99.90
5779;DHT22;2916;49.798;10.022;2022-08-19T04:23:15;19.70;99.90
5779;DHT22;2916;49.798;10.022;2022-08-19T04:25:44;19.70;99.90
5779;DHT22;2916;49.798;10.022;2022-08-19T04:28:12;19.70;99.90
5779;DHT22;2916;49.798;10.022;2022-08-19T04:30:42;19.70;99.90
5779;DHT22;2916;49.798;10.022;2022-08-19T04:33:11;19.70;99.90
5779;DHT22;2916;49.798;10.022;2022-08-19T04:35:43;19.70;99.90
5779;DHT22;2916;49.798;10.022;2022-08-19T04:38:14;19.60;99.90
5779;DHT22;2916;49.798;10.022;2022-08-19T04:40:44;19.70;99.90
5779;DHT22;2916;49.798;10.022;2022-08-19T04:43:31;19.80;99.90
5779;DHT22;2916;49.798;10.022;2022-08-19T04:46:04;19.80;99.90
5779;DHT22;2916;49.798;10.022;2022-08-19T04:48:33;19.80;99.90
5779;DHT22;2916;49.798;10.022;2022-08-19T04:51:00;19.80;99.90
5779;DHT22;2916;49.798;10.022;2022-08-19T04:53:35;19.80;99.90
5779;DHT22;2916;49.798;10.022;2022-08-19T04:56:05;19.90;99.90
5779;DHT22;2916;49.798;10.022;2022-08-19T04:58:34;19.90;99.90
5779;DHT22;2916;49.798;10.022;2022-08-19T05:01:04;19.90;99.90
5779;DHT22;2916;49.798;10.022;2022-08-19T05:03:31;19.90;99.90
5779;DHT22;2916;49.798;10.022;2022-08-19T05:06:05;19.90;99.90
5779;DHT22;2916;49.798;10.022;2022-08-19T05:08:36;20.00;99.90
5779;DHT22;2916;49.798;10.022;2022-08-19T05:11:09;20.00;99.90
5779;DHT22;2916;49.798;10.022;2022-08-19T05:13:38;20.10;99.90
5779;DHT22;2916;49.798;10.022;2022-08-19T05:16:05;20.10;99.90
5779;DHT22;2916;49.798;10.022;2022-08-19T05:18:32;20.10;99.90
5779;DHT22;2916;49.798;10.022;2022-08-19T05:21:19;20.10;99.90
5779;DHT22;2916;49.798;10.022;2022-08-19T05:24:07;20.10;99.90
5779;DHT22;2916;49.798;10.022;2022-08-19T05:26:34;20.20;99.90
5779;DHT22;2916;49.798;10.022;2022-08-19T05:29:02;20.20;99.90
5779;DHT22;2916;49.798;10.022;2022-08-19T05:31:30;20.30;99.90
5779;DHT22;2916;49.798;10.022;2022-08-19T05:33:58;20.40;99.90
5779;DHT22;2916;49.798;10.022;2022-08-19T05:36:25;20.40;99.90
5779;DHT22;2916;49.798;10.022;2022-08-19T05:38:53;20.40;99.90
5779;DHT22;2916;49.798;10.022;2022-08-19T05:41:22;20.50;99.90
5779;DHT22;2916;49.798;10.022;2022-08-19T05:43:54;20.60;99.90
5779;DHT22;2916;49.798;10.022;2022-08-19T05:46:22;20.60;99.90
5779;DHT22;2916;49.798;10.022;2022-08-19T05:48:50;20.60;99.90
5779;DHT22;2916;49.798;10.022;2022-08-19T05:51:17;20.70;99.90
5779;DHT22;2916;49.798;10.022;2022-08-19T05:53:44;20.70;99.90
5779;DHT22;2916;49.798;10.022;2022-08-19T05:56:13;20.70;99.90
5779;DHT22;2916;49.798;10.022;2022-08-19T05:58:45;20.70;98.30
5779;DHT22;2916;49.798;10.022;2022-08-19T06:01:14;20.70;97.70
5779;DHT22;2916;49.798;10.022;2022-08-19T06:03:44;20.70;97.20
5779;DHT22;2916;49.798;10.022;2022-08-19T06:06:14;20.80;96.00
5779;DHT22;2916;49.798;10.022;2022-08-19T06:08:42;20.80;95.10
5779;DHT22;2916;49.798;10.022;2022-08-19T06:11:19;20.80;93.70
5779;DHT22;2916;49.798;10.022;2022-08-19T06:13:53;20.80;93.50
5779;DHT22;2916;49.798;10.022;2022-08-19T06:16:22;20.90;93.50
5779;DHT22;2916;49.798;10.022;2022-08-19T06:18:50;20.90;92.50
5779;DHT22;2916;49.798;10.022;2022-08-19T06:21:19;20.90;93.10
5779;DHT22;2916;49.798;10.022;2022-08-19T06:23:53;20.90;92.10
5779;DHT22;2916;49.798;10.022;2022-08-19T06:26:21;20.90;90.80
5779;DHT22;2916;49.798;10.022;2022-08-19T06:28:49;21.00;91.10
5779;DHT22;2916;49.798;10.022;2022-08-19T06:31:20;21.00;89.70
5779;DHT22;2916;49.798;10.022;2022-08-19T06:33:53;21.10;87.30
5779;DHT22;2916;49.798;10.022;2022-08-19T06:36:22;21.10;85.30
5779;DHT22;2916;49.798;10.022;2022-08-19T06:38:52;21.20;83.80
5779;DHT22;2916;49.798;10.022;2022-08-19T06:41:20;21.30;82.20
5779;DHT22;2916;49.798;10.022;2022-08-19T06:43:47;21.30;79.10
5779;DHT22;2916;49.798;10.022;2022-08-19T06:46:16;21.40;76.60
5779;DHT22;2916;49.798;10.022;2022-08-19T06:48:44;21.40;75.70
5779;DHT22;2916;49.798;10.022;2022-08-19T06:51:12;21.40;74.40
5779;DHT22;2916;49.798;10.022;2022-08-19T06:53:44;21.40;74.30
5779;DHT22;2916;49.798;10.022;2022-08-19T06:56:13;21.40;69.80
5779;DHT22;2916;49.798;10.022;2022-08-19T06:58:41;21.50;68.90
5779;DHT22;2916;49.798;10.022;2022-08-19T07:01:09;21.60;67.90
5779;DHT22;2916;49.798;10.022;2022-08-19T07:03:38;21.60;66.60
5779;DHT22;2916;49.798;10.022;2022-08-19T07:06:11;21.70;65.70
5779;DHT22;2916;49.798;10.022;2022-08-19T07:08:43;21.70;61.00
5779;DHT22;2916;49.798;10.022;2022-08-19T07:11:13;21.80;60.10
5779;DHT22;2916;49.798;10.022;2022-08-19T07:13:43;21.80;58.80
5779;DHT22;2916;49.798;10.022;2022-08-19T07:16:13;21.80;56.70
5779;DHT22;2916;49.798;10.022;2022-08-19T07:18:43;21.90;54.20
5779;DHT22;2916;49.798;10.022;2022-08-19T07:21:16;22.00;50.80
5779;DHT22;2916;49.798;10.022;2022-08-19T07:23:46;22.10;51.70
5779;DHT22;2916;49.798;10.022;2022-08-19T07:26:16;22.20;48.90
5779;DHT22;2916;49.798;10.022;2022-08-19T07:28:46;22.40;47.70
5779;DHT22;2916;49.798;10.022;2022-08-19T07:31:16;22.60;39.10
5779;DHT22;2916;49.798;10.022;2022-08-19T07:33:47;22.70;38.20
5779;DHT22;2916;49.798;10.022;2022-08-19T07:36:18;22.80;33.90
5779;DHT22;2916;49.798;10.022;2022-08-19T07:38:48;22.80;33.10
5779;DHT22;2916;49.798;10.022;2022-08-19T07:41:20;22.90;29.50
5779;DHT22;2916;49.798;10.022;2022-08-19T07:43:50;22.90;29.50
5779;DHT22;2916;49.798;10.022;2022-08-19T07:46:19;23.00;27.40
5779;DHT22;2916;49.798;10.022;2022-08-19T07:48:49;23.00;26.00
5779;DHT22;2916;49.798;10.022;2022-08-19T07:51:19;23.00;25.80
5779;DHT22;2916;49.798;10.022;2022-08-19T07:53:48;23.10;24.80
5779;DHT22;2916;49.798;10.022;2022-08-19T07:56:17;23.20;22.90
5779;DHT22;2916;49.798;10.022;2022-08-19T07:58:47;23.20;23.20
5779;DHT22;2916;49.798;10.022;2022-08-19T08:01:17;23.30;21.90
5779;DHT22;2916;49.798;10.022;2022-08-19T08:03:48;23.40;20.00
5779;DHT22;2916;49.798;10.022;2022-08-19T08:06:35;23.50;19.20
5779;DHT22;2916;49.798;10.022;2022-08-19T08:09:22;23.50;18.90
5779;DHT22;2916;49.798;10.022;2022-08-19T08:11:54;23.50;15.70
5779;DHT22;2916;49.798;10.022;2022-08-19T08:14:28;23.40;16.40
5779;DHT22;2916;49.798;10.022;2022-08-19T08:16:57;23.50;16.60
5779;DHT22;2916;49.798;10.022;2022-08-19T08:19:27;23.60;15.70
5779;DHT22;2916;49.798;10.022;2022-08-19T08:21:56;23.70;13.20
5779;DHT22;2916;49.798;10.022;2022-08-19T08:24:25;23.90;12.30
5779;DHT22;2916;49.798;10.022;2022-08-19T08:26:53;23.90;10.10
5779;DHT22;2916;49.798;10.022;2022-08-19T08:29:20;24.00;9.50
5779;DHT22;2916;49.798;10.022;2022-08-19T08:31:47;24.10;8.20
5779;DHT22;2916;49.798;10.022;2022-08-19T08:34:15;24.10;7.30
5779;DHT22;2916;49.798;10.022;2022-08-19T08:36:45;24.30;6.40
5779;DHT22;2916;49.798;10.022;2022-08-19T08:39:14;24.30;4.20
5779;DHT22;2916;49.798;10.022;2022-08-19T08:41:49;24.30;2.80
5779;DHT22;2916;49.798;10.022;2022-08-19T08:44:22;24.10;1.80
5779;DHT22;2916;49.798;10.022;2022-08-19T08:46:58;24.10;2.80
5779;DHT22;2916;49.798;10.022;2022-08-19T08:49:31;24.30;3.40
5779;DHT22;2916;49.798;10.022;2022-08-19T08:52:05;24.20;1.40
5779;DHT22;2916;49.798;10.022;2022-08-19T08:54:39;24.10;1.80
5779;DHT22;2916;49.798;10.022;2022-08-19T08:57:12;24.10;1.70
5779;DHT22;2916;49.798;10.022;2022-08-19T08:59:46;24.20;1.00
5779;DHT22;2916;49.798;10.022;2022-08-19T09:02:16;24.10;1.70
5779;DHT22;2916;49.798;10.022;2022-08-19T09:04:43;24.20;1.00
5779;DHT22;2916;49.798;10.022;2022-08-19T09:07:26;24.00;3.90
5779;DHT22;2916;49.798;10.022;2022-08-19T09:10:07;24.10;2.10
5779;DHT22;2916;49.798;10.022;2022-08-19T09:12:47;24.20;2.10
5779;DHT22;2916;49.798;10.022;2022-08-19T09:15:29;24.20;1.00
5779;DHT22;2916;49.798;10.022;2022-08-19T09:18:02;24.20;1.00
5779;DHT22;2916;49.798;10.022;2022-08-19T09:20:32;24.30;1.00
5779;DHT22;2916;49.798;10.022;2022-08-19T09:23:01;24.40;1.40
5779;DHT22;2916;49.798;10.022;2022-08-19T09:25:28;24.50;1.00
5779;DHT22;2916;49.798;10.022;2022-08-19T09:27:56;24.60;1.00
5779;DHT22;2916;49.798;10.022;2022-08-19T09:30:29;24.50;1.00
5779;DHT22;2916;49.798;10.022;2022-08-19T09:33:00;24.70;1.00
5779;DHT22;2916;49.798;10.022;2022-08-19T09:35:29;24.90;1.00
5779;DHT22;2916;49.798;10.022;2022-08-19T09:37:57;25.10;1.00
5779;DHT22;2916;49.798;10.022;2022-08-19T09:40:28;25.40;1.00
5779;DHT22;2916;49.798;10.022;2022-08-19T09:42:56;25.00;1.00
5779;DHT22;2916;49.798;10.022;2022-08-19T09:45:28;24.90;1.00
5779;DHT22;2916;49.798;10.022;2022-08-19T09:47:56;25.20;1.00
5779;DHT22;2916;49.798;10.022;2022-08-19T09:50:24;25.40;1.00
5779;DHT22;2916;49.798;10.022;2022-08-19T09:52:51;25.70;1.00
5779;DHT22;2916;49.798;10.022;2022-08-19T09:55:22;25.70;1.00
5779;DHT22;2916;49.798;10.022;2022-08-19T09:57:53;25.60;1.00
5779;DHT22;2916;49.798;10.022;2022-08-19T10:00:20;25.60;1.00
5779;DHT22;2916;49.798;10.022;2022-08-19T10:02:47;25.50;1.00
5779;DHT22;2916;49.798;10.022;2022-08-19T10:05:15;25.70;1.00
5779;DHT22;2916;49.798;10.022;2022-08-19T10:07:59;25.60;1.00
5779;DHT22;2916;49.798;10.022;2022-08-19T10:10:26;25.60;1.00
5779;DHT22;2916;49.798;10.022;2022-08-19T10:12:55;25.70;1.00
5779;DHT22;2916;49.798;10.022;2022-08-19T10:15:22;25.80;1.00
5779;DHT22;2916;49.798;10.022;2022-08-19T10:17:49;25.90;1.00
5779;DHT22;2916;49.798;10.022;2022-08-19T10:20:16;25.80;1.00
5779;DHT22;2916;49.798;10.022;2022-08-19T10:22:43;25.80;1.00
5779;DHT22;2916;49.798;10.022;2022-08-19T10:25:11;25.80;1.00
5779;DHT22;2916;49.798;10.022;2022-08-19T10:27:42;25.80;1.00
5779;DHT22;2916;49.798;10.022;2022-08-19T10:30:12;25.80;1.00
5779;DHT22;2916;49.798;10.022;2022-08-19T10:32:39;25.80;1.00
5779;DHT22;2916;49.798;10.022;2022-08-19T10:35:07;25.70;1.00
5779;DHT22;2916;49.798;10.022;2022-08-19T10:37:35;25.60;1.00
5779;DHT22;2916;49.798;10.022;2022-08-19T10:40:04;25.50;1.00
5779;DHT22;2916;49.798;10.022;2022-08-19T10:42:33;25.60;1.00
5779;DHT22;2916;49.798;10.022;2022-08-19T10:45:02;25.60;1.00
5779;DHT22;2916;49.798;10.022;2022-08-19T10:47:33;25.50;1.00
5779;DHT22;2916;49.798;10.022;2022-08-19T10:50:01;25.50;1.00
5779;DHT22;2916;49.798;10.022;2022-08-19T10:52:47;25.60;1.00
5779;DHT22;2916;49.798;10.022;2022-08-19T10:55:19;25.80;1.00
5779;DHT22;2916;49.798;10.022;2022-08-19T10:58:11;25.80;1.00
5779;DHT22;2916;49.798;10.022;2022-08-19T11:00:38;25.80;1.00
5779;DHT22;2916;49.798;10.022;2022-08-19T11:03:08;26.00;1.00
5779;DHT22;2916;49.798;10.022;2022-08-19T11:05:35;26.20;1.00
5779;DHT22;2916;49.798;10.022;2022-08-19T11:08:04;26.20;1.00
5779;DHT22;2916;49.798;10.022;2022-08-19T11:10:32;26.30;1.00
5779;DHT22;2916;49.798;10.022;2022-08-19T11:13:00;26.30;1.00
5779;DHT22;2916;49.798;10.022;2022-08-19T11:15:27;26.50;1.00
5779;DHT22;2916;49.798;10.022;2022-08-19T11:17:54;26.50;1.00
5779;DHT22;2916;49.798;10.022;2022-08-19T11:20:23;26.50;1.00
5779;DHT22;2916;49.798;10.022;2022-08-19T11:22:51;26.40;1.00
5779;DHT22;2916;49.798;10.022;2022-08-19T11:25:19;26.30;1.00
5779;DHT22;2916;49.798;10.022;2022-08-19T11:27:47;26.20;1.00
5779;DHT22;2916;49.798;10.022;2022-08-19T11:30:16;26.10;1.00
5779;DHT22;2916;49.798;10.022;2022-08-19T11:32:43;26.00;1.00
5779;DHT22;2916;49.798;10.022;2022-08-19T11:35:10;26.00;1.00
5779;DHT22;2916;49.798;10.022;2022-08-19T11:37:39;25.90;1.00
5779;DHT22;2916;49.798;10.022;2022-08-19T11:40:07;25.90;1.00
5779;DHT22;2916;49.798;10.022;2022-08-19T11:42:35;25.90;1.00
5779;DHT22;2916;49.798;10.022;2022-08-19T11:45:19;26.10;1.00
5779;DHT22;2916;49.798;10.022;2022-08-19T11:47:47;26.10;1.00
5779;DHT22;2916;49.798;10.022;2022-08-19T11:50:14;26.10;1.00
5779;DHT22;2916;49.798;10.022;2022-08-19T11:52:44;26.10;1.00
5779;DHT22;2916;49.798;10.022;2022-08-19T11:55:12;26.30;1.00
5779;DHT22;2916;49.798;10.022;2022-08-19T11:57:40;26.30;1.00
5779;DHT22;2916;49.798;10.022;2022-08-19T12:00:09;26.30;1.00
5779;DHT22;2916;49.798;10.022;2022-08-19T12:02:38;26.40;1.00
5779;DHT22;2916;49.798;10.022;2022-08-19T12:05:07;26.50;1.00
5779;DHT22;2916;49.798;10.022;2022-08-19T12:07:34;26.60;1.00
5779;DHT22;2916;49.798;10.022;2022-08-19T12:10:03;26.80;1.00
5779;DHT22;2916;49.798;10.022;2022-08-19T12:12:31;26.80;1.00
5779;DHT22;2916;49.798;10.022;2022-08-19T12:14:58;26.80;1.00
5779;DHT22;2916;49.798;10.022;2022-08-19T12:17:26;26.80;1.00
5779;DHT22;2916;49.798;10.022;2022-08-19T12:19:54;26.90;1.00
5779;DHT22;2916;49.798;10.022;2022-08-19T12:22:21;27.00;1.00
5779;DHT22;2916;49.798;10.022;2022-08-19T12:24:49;26.90;1.00
5779;DHT22;2916;49.798;10.022;2022-08-19T12:27:19;26.90;1.00
5779;DHT22;2916;49.798;10.022;2022-08-19T12:29:46;26.80;1.00
5779;DHT22;2916;49.798;10.022;2022-08-19T12:32:15;26.90;1.00
5779;DHT22;2916;49.798;10.022;2022-08-19T12:34:42;27.10;1.00
5779;DHT22;2916;49.798;10.022;2022-08-19T12:37:10;27.10;1.00
5779;DHT22;2916;49.798;10.022;2022-08-19T12:39:39;26.80;1.00
5779;DHT22;2916;49.798;10.022;2022-08-19T12:42:08;26.90;1.00
5779;DHT22;2916;49.798;10.022;2022-08-19T12:44:38;26.90;1.00
5779;DHT22;2916;49.798;10.022;2022-08-19T12:47:08;26.90;1.00
5779;DHT22;2916;49.798;10.022;2022-08-19T12:49:37;27.00;1.00
5779;DHT22;2916;49.798;10.022;2022-08-19T12:52:05;26.90;1.00
5779;DHT22;2916;49.798;10.022;2022-08-19T12:54:34;26.80;1.00
5779;DHT22;2916;49.798;10.022;2022-08-19T12:57:05;26.70;1.00
5779;DHT22;2916;49.798;10.022;2022-08-19T12:59:33;26.70;1.00
5779;DHT22;2916;49.798;10.022;2022-08-19T13:02:03;26.80;1.00
5779;DHT22;2916;49.798;10.022;2022-08-19T13:04:31;26.80;1.00
5779;DHT22;2916;49.798;10.022;2022-08-19T13:07:00;26.90;1.00
5779;DHT22;2916;49.798;10.022;2022-08-19T13:09:27;26.90;1.00
5779;DHT22;2916;49.798;10.022;2022-08-19T13:11:54;26.90;1.00
5779;DHT22;2916;49.798;10.022;2022-08-19T13:14:22;27.00;1.00
5779;DHT22;2916;49.798;10.022;2022-08-19T13:16:49;27.00;1.00
5779;DHT22;2916;49.798;10.022;2022-08-19T13:19:18;26.90;1.00
5779;DHT22;2916;49.798;10.022;2022-08-19T13:21:49;27.00;1.00
5779;DHT22;2916;49.798;10.022;2022-08-19T13:24:18;27.20;1.00
5779;DHT22;2916;49.798;10.022;2022-08-19T13:26:45;27.40;1.00
5779;DHT22;2916;49.798;10.022;2022-08-19T13:29:13;27.50;1.00
5779;DHT22;2916;49.798;10.022;2022-08-19T13:31:58;27.60;1.00
5779;DHT22;2916;49.798;10.022;2022-08-19T13:34:44;27.70;1.00
5779;DHT22;2916;49.798;10.022;2022-08-19T13:37:12;27.80;1.00
5779;DHT22;2916;49.798;10.022;2022-08-19T13:39:39;27.90;1.00
5779;DHT22;2916;49.798;10.022;2022-08-19T13:42:07;27.80;1.00
5779;DHT22;2916;49.798;10.022;2022-08-19T13:44:35;27.60;1.00
5779;DHT22;2916;49.798;10.022;2022-08-19T13:47:04;27.70;1.00
5779;DHT22;2916;49.798;10.022;2022-08-19T13:49:33;27.60;1.00
5779;DHT22;2916;49.798;10.022;2022-08-19T13:52:04;27.70;1.00
5779;DHT22;2916;49.798;10.022;2022-08-19T13:54:32;27.60;1.00
5779;DHT22;2916;49.798;10.022;2022-08-19T13:56:59;27.60;1.00
5779;DHT22;2916;49.798;10.022;2022-08-19T13:59:26;27.60;1.00
5779;DHT22;2916;49.798;10.022;2022-08-19T14:01:57;27.70;1.00
5779;DHT22;2916;49.798;10.022;2022-08-19T14:04:25;27.60;1.00
5779;DHT22;2916;49.798;10.022;2022-08-19T14:06:52;27.60;1.00
5779;DHT22;2916;49.798;10.022;2022-08-19T14:09:20;27.50;1.00
5779;DHT22;2916;49.798;10.022;2022-08-19T14:11:47;27.60;1.00
5779;DHT22;2916;49.798;10.022;2022-08-19T14:14:16;27.60;1.00
5779;DHT22;2916;49.798;10.022;2022-08-19T14:16:43;27.80;1.00
5779;DHT22;2916;49.798;10.022;2022-08-19T14:19:10;27.80;1.00
5779;DHT22;2916;49.798;10.022;2022-08-19T14:21:37;27.90;1.00
5779;DHT22;2916;49.798;10.022;2022-08-19T14:24:06;27.80;1.00
5779;DHT22;2916;49.798;10.022;2022-08-19T14:26:35;27.80;1.00
5779;DHT22;2916;49.798;10.022;2022-08-19T14:29:02;27.70;1.00
5779;DHT22;2916;49.798;10.022;2022-08-19T14:31:29;27.50;1.00
5779;DHT22;2916;49.798;10.022;2022-08-19T14:33:56;27.60;1.00
5779;DHT22;2916;49.798;10.022;2022-08-19T14:36:24;27.70;1.00
5779;DHT22;2916;49.798;10.022;2022-08-19T14:38:51;27.60;1.00
5779;DHT22;2916;49.798;10.022;2022-08-19T14:41:21;27.40;1.00
5779;DHT22;2916;49.798;10.022;2022-08-19T14:43:52;27.50;1.00
5779;DHT22;2916;49.798;10.022;2022-08-19T14:46:22;27.40;1.00
5779;DHT22;2916;49.798;10.022;2022-08-19T14:48:51;27.30;1.00
5779;DHT22;2916;49.798;10.022;2022-08-19T14:51:20;27.60;1.00
5779;DHT22;2916;49.798;10.022;2022-08-19T14:53:48;27.50;1.00
5779;DHT22;2916;49.798;10.022;2022-08-19T14:56:18;27.30;1.00
5779;DHT22;2916;49.798;10.022;2022-08-19T14:58:47;27.50;1.00
5779;DHT22;2916;49.798;10.022;2022-08-19T15:01:19;27.20;1.00
5779;DHT22;2916;49.798;10.022;2022-08-19T15:03:49;27.50;1.00
5779;DHT22;2916;49.798;10.022;2022-08-19T15:06:18;27.20;1.00
5779;DHT22;2916;49.798;10.022;2022-08-19T15:08:45;27.30;1.00
5779;DHT22;2916;49.798;10.022;2022-08-19T15:11:14;27.40;1.00
5779;DHT22;2916;49.798;10.022;2022-08-19T15:13:45;27.30;1.00
5779;DHT22;2916;49.798;10.022;2022-08-19T15:16:13;26.90;1.00
5779;DHT22;2916;49.798;10.022;2022-08-19T15:18:43;26.80;1.00
5779;DHT22;2916;49.798;10.022;2022-08-19T15:21:12;27.20;1.00
5779;DHT22;2916;49.798;10.022;2022-08-19T15:23:42;27.50;1.00
5779;DHT22;2916;49.798;10.022;2022-08-19T15:26:09;27.20;1.00
5779;DHT22;2916;49.798;10.022;2022-08-19T15:28:36;27.20;1.00
5779;DHT22;2916;49.798;10.022;2022-08-19T15:31:04;27.00;1.00
5779;DHT22;2916;49.798;10.022;2022-08-19T15:33:32;27.30;1.00
5779;DHT22;2916;49.798;10.022;2022-08-19T15:36:02;27.10;1.00
5779;DHT22;2916;49.798;10.022;2022-08-19T15:38:31;26.80;1.00
5779;DHT22;2916;49.798;10.022;2022-08-19T15:41:00;26.90;1.00
5779;DHT22;2916;49.798;10.022;2022-08-19T15:43:42;26.80;1.00
5779;DHT22;2916;49.798;10.022;2022-08-19T15:46:10;26.50;1.00
5779;DHT22;2916;49.798;10.022;2022-08-19T15:48:37;26.50;1.00
5779;DHT22;2916;49.798;10.022;2022-08-19T15:51:05;26.40;1.00
5779;DHT22;2916;49.798;10.022;2022-08-19T15:53:33;26.50;1.00
5779;DHT22;2916;49.798;10.022;2022-08-19T15:56:00;26.50;1.00
5779;DHT22;2916;49.798;10.022;2022-08-19T15:58:27;26.10;1.00
5779;DHT22;2916;49.798;10.022;2022-08-19T16:01:12;25.90;1.00
5779;DHT22;2916;49.798;10.022;2022-08-19T16:03:57;26.00;1.00
5779;DHT22;2916;49.798;10.022;2022-08-19T16:06:46;26.10;1.00
5779;DHT22;2916;49.798;10.022;2022-08-19T16:09:17;26.00;1.00
5779;DHT22;2916;49.798;10.022;2022-08-19T16:11:46;25.80;1.00